createdAt,value
2022-12-11T00:00:02.821Z,276.633
2022-12-11T00:05:02.804Z,238.79500000000002
2022-12-11T00:10:02.839Z,243.091
2022-12-11T00:15:02.876Z,335.281
2022-12-11T00:20:02.830Z,309.349
2022-12-11T00:25:02.825Z,452.439
2022-12-11T00:30:02.913Z,828.856
2022-12-11T00:35:02.985Z,3091.652
2022-12-11T00:40:03.096Z,4399.9890000000005
2022-12-11T00:45:02.920Z,4280.02
2022-12-11T00:50:02.953Z,2242.576
2022-12-11T00:55:02.901Z,2258.096
2022-12-11T01:00:02.874Z,2324.281
2022-12-11T01:05:02.974Z,2742.348
2022-12-11T01:10:02.952Z,1881.781
2022-12-11T01:15:02.997Z,371.267
2022-12-11T01:20:03.083Z,170.121
2022-12-11T01:25:03.052Z,170.004
2022-12-11T01:30:02.916Z,200.41
2022-12-11T01:35:02.954Z,186.89000000000001
2022-12-11T01:40:02.909Z,166.133
2022-12-11T01:45:02.898Z,206.433
2022-12-11T01:50:02.926Z,1765.617
2022-12-11T01:55:02.942Z,1999.876
2022-12-11T02:00:02.910Z,2570.599
2022-12-11T02:05:03.094Z,2922.7580000000003
2022-12-11T02:10:03.134Z,6895.726000000001
2022-12-11T02:15:02.985Z,6920.064
2022-12-11T02:20:02.978Z,6911.918000000001
2022-12-11T02:25:02.892Z,6944.101000000001
2022-12-11T02:30:02.944Z,6450.884
2022-12-11T02:35:02.941Z,4963.069
2022-12-11T02:40:02.976Z,4973.779
2022-12-11T02:45:02.952Z,4972.857
2022-12-11T02:50:03.077Z,5131.179
2022-12-11T02:55:03.132Z,4840.179
2022-12-11T03:00:02.961Z,4847.174
2022-12-11T03:05:03.020Z,4834.01
2022-12-11T03:10:03.020Z,4816.142
2022-12-11T03:15:03.015Z,6768.947
2022-12-11T03:20:03.003Z,6826.414
2022-12-11T03:25:03.020Z,7019.687
2022-12-11T03:30:03.000Z,6433.254
2022-12-11T03:35:03.028Z,7094.863
2022-12-11T03:40:03.189Z,6953.613
2022-12-11T03:45:03.224Z,7048.128
2022-12-11T03:50:02.964Z,6930.888
2022-12-11T03:55:02.990Z,7068.267
2022-12-11T04:00:03.019Z,7387.813
2022-12-11T04:05:03.019Z,5173.551
2022-12-11T04:10:03.073Z,4961.691
2022-12-11T04:15:03.127Z,4944.362
2022-12-11T04:20:03.031Z,4924.135
2022-12-11T04:25:03.165Z,4850.702
2022-12-11T04:30:03.227Z,4844.217000000001
2022-12-11T04:35:03.258Z,5403.9980000000005
2022-12-11T04:40:03.070Z,6914.084
2022-12-11T04:45:03.048Z,6827.875
2022-12-11T04:50:03.043Z,6838.343
2022-12-11T04:55:03.041Z,6415.542
2022-12-11T05:00:03.059Z,7125.8
2022-12-11T05:05:03.087Z,7002.812
2022-12-11T05:10:03.159Z,6923.568
2022-12-11T05:15:03.142Z,6852.3460000000005
2022-12-11T05:20:03.237Z,6866.104
2022-12-11T05:25:03.281Z,5135.021
2022-12-11T05:30:03.114Z,6640.738
2022-12-11T05:35:03.321Z,7472.554
2022-12-11T05:40:03.105Z,5494.227
2022-12-11T05:45:03.079Z,4941.974
2022-12-11T05:50:03.140Z,4927.792
2022-12-11T05:55:03.167Z,4916.852
2022-12-11T06:00:03.249Z,4883.347
2022-12-11T06:05:03.145Z,6143.298
2022-12-11T06:10:03.289Z,6657.415
2022-12-11T06:15:03.340Z,6230.394
2022-12-11T06:20:03.282Z,5197.2570000000005
2022-12-11T06:25:03.279Z,5599.109
2022-12-11T06:30:03.238Z,3708.744
2022-12-11T06:35:03.183Z,2698.813
2022-12-11T06:40:03.163Z,2378.27
2022-12-11T06:45:03.176Z,2354.91
2022-12-11T06:50:03.178Z,2292.425
2022-12-11T06:55:03.285Z,2324.896
2022-12-11T07:00:03.276Z,2357.893
2022-12-11T07:05:03.381Z,2371.119
2022-12-11T07:10:07.880Z,1640.257
2022-12-11T07:15:01.516Z,279.391
2022-12-11T07:20:01.279Z,408.789
2022-12-11T07:25:01.262Z,420.576
2022-12-11T07:30:01.290Z,456.569
2022-12-11T07:35:01.259Z,370.741
2022-12-11T07:40:01.304Z,511.88
2022-12-11T07:45:01.342Z,2083.59
2022-12-11T07:50:01.883Z,1873.67
2022-12-11T07:55:01.417Z,2344.446
2022-12-11T08:00:01.479Z,2273.728
2022-12-11T08:05:01.462Z,2375.893
2022-12-11T08:10:01.341Z,2519.887
2022-12-11T08:15:01.374Z,2476.141
2022-12-11T08:20:01.291Z,2381.038
2022-12-11T08:25:01.338Z,3694.049
2022-12-11T08:30:01.347Z,2782.343
2022-12-11T08:35:01.368Z,2141.074
2022-12-11T08:40:01.381Z,978.767
2022-12-11T08:45:01.345Z,2609.467
2022-12-11T08:50:01.317Z,2480.215
2022-12-11T08:55:01.429Z,3565.772
2022-12-11T09:00:01.459Z,3513.75
2022-12-11T09:05:01.478Z,2962.199
2022-12-11T09:10:01.378Z,2793.473
2022-12-11T09:15:02.089Z,3057.876
2022-12-11T09:20:01.391Z,2964.885
2022-12-11T09:25:01.362Z,852.255
2022-12-11T09:30:01.362Z,469.076
2022-12-11T09:35:01.355Z,484.962
2022-12-11T09:40:07.229Z,460.708
2022-12-11T09:45:01.464Z,2344.4320000000002
2022-12-11T09:50:01.578Z,2458.939
2022-12-11T09:55:01.499Z,2662.971
2022-12-11T10:00:05.057Z,2360.625
2022-12-11T10:05:01.417Z,1855.105
2022-12-11T10:10:01.523Z,2269.213
2022-12-11T10:15:01.481Z,2167.089
2022-12-11T10:20:01.407Z,2161.678
2022-12-11T10:25:12.287Z,2503.427
2022-12-11T10:30:01.400Z,2487.569
2022-12-11T10:35:01.461Z,2301.6150000000002
2022-12-11T10:40:01.453Z,2261.024
2022-12-11T10:45:01.618Z,2200.16
2022-12-11T10:50:01.630Z,2199.335
2022-12-11T10:55:01.426Z,2106.552
2022-12-11T11:00:01.460Z,2360.636
2022-12-11T11:05:01.438Z,2408.439
2022-12-11T11:10:01.523Z,2263.81
2022-12-11T11:15:01.508Z,2360.869
2022-12-11T11:20:01.497Z,2372.233
2022-12-11T11:25:01.458Z,2364.089
2022-12-11T11:30:01.518Z,2266.4700000000003
2022-12-11T11:35:01.616Z,2821.827
2022-12-11T11:40:01.645Z,2561.51
2022-12-11T11:45:01.505Z,191.155
2022-12-11T11:50:01.502Z,176.198
2022-12-11T11:55:01.546Z,163.133
2022-12-11T12:00:01.506Z,1016.378
2022-12-11T12:05:01.489Z,2307.401
2022-12-11T12:10:01.556Z,2074.965
2022-12-11T12:15:01.550Z,2524.454
2022-12-11T12:20:01.527Z,2125.247
2022-12-11T12:25:01.634Z,2145.001
2022-12-11T12:30:01.669Z,2159.1150000000002
2022-12-11T12:35:01.734Z,2349.616
2022-12-11T12:40:01.554Z,2250.282
2022-12-11T12:45:01.542Z,2478.102
2022-12-11T12:50:01.550Z,2546.456
2022-12-11T12:55:01.556Z,2358.9700000000003
2022-12-11T13:00:01.503Z,956.163
2022-12-11T13:05:01.542Z,1843.2150000000001
2022-12-11T13:10:01.634Z,1811.9460000000001
2022-12-11T13:15:01.718Z,2369.187
2022-12-11T13:20:01.821Z,2282.242
2022-12-11T13:25:01.612Z,2555.564
2022-12-11T13:30:01.571Z,2246.52
2022-12-11T13:35:01.612Z,3111.745
2022-12-11T13:40:01.599Z,3226.337
2022-12-11T13:45:01.647Z,2773.335
2022-12-11T13:50:01.577Z,2584.2290000000003
2022-12-11T13:55:01.621Z,2682.238
2022-12-11T14:00:01.700Z,3169.699
2022-12-11T14:05:01.823Z,2106.297
2022-12-11T14:10:01.612Z,1341.298
2022-12-11T14:15:01.613Z,2979.882
2022-12-11T14:20:01.637Z,2718.216
2022-12-11T14:25:01.675Z,2522.033
2022-12-11T14:30:01.666Z,2482.195
2022-12-11T14:35:01.770Z,2692.25
2022-12-11T14:40:01.652Z,2677.378
2022-12-11T14:45:01.622Z,2569.072
2022-12-11T14:50:01.786Z,2735.44
2022-12-11T14:55:01.832Z,2514.732
2022-12-11T15:00:01.638Z,2498.067
2022-12-11T15:05:01.641Z,2489.059
2022-12-11T15:10:01.662Z,2752.824
2022-12-11T15:15:01.666Z,2665.598
2022-12-11T15:20:01.653Z,2636.62
2022-12-11T15:25:01.647Z,2469.431
2022-12-11T15:30:01.722Z,2559.498
2022-12-11T15:35:01.812Z,2513.455
2022-12-11T15:40:01.922Z,2785.087
2022-12-11T15:45:01.714Z,2524.319
2022-12-11T15:50:01.951Z,2800.253
2022-12-11T15:55:01.684Z,2591.623
2022-12-11T16:00:01.746Z,1346.194
2022-12-11T16:05:01.704Z,606.453
2022-12-11T16:10:01.724Z,1148.894
2022-12-11T16:15:01.706Z,2450.27
2022-12-11T16:20:01.829Z,2560.817
2022-12-11T16:25:01.927Z,2560.893
2022-12-11T16:30:01.768Z,2558.1820000000002
2022-12-11T16:35:01.764Z,2538.324
2022-12-11T16:40:01.943Z,2541.632
2022-12-11T16:45:01.743Z,4159.601
2022-12-11T16:50:01.724Z,5754.568
2022-12-11T16:55:01.735Z,5051.335
2022-12-11T17:00:02.336Z,4278.224
2022-12-11T17:05:01.836Z,4458.251
2022-12-11T17:10:01.969Z,4475.483
2022-12-11T17:15:01.797Z,3949.695
2022-12-11T17:20:01.793Z,3927.6820000000002
2022-12-11T17:25:01.766Z,3054.491
2022-12-11T17:30:01.809Z,1509.21
2022-12-11T17:35:01.855Z,468.474
2022-12-11T17:40:01.796Z,804.5120000000001
2022-12-11T17:45:01.880Z,326.88800000000003
2022-12-11T17:50:01.919Z,2104.55
2022-12-11T17:55:02.016Z,2300.101
2022-12-11T18:00:01.821Z,2315.152
2022-12-11T18:05:01.908Z,2723.303
2022-12-11T18:10:01.902Z,2618.431
2022-12-11T18:15:01.896Z,1980.9360000000001
2022-12-11T18:20:01.803Z,2711.414
2022-12-11T18:25:06.458Z,2472.009
2022-12-11T18:30:01.878Z,1960.22
2022-12-11T18:35:01.987Z,869.583
2022-12-11T18:40:02.037Z,2360.4900000000002
2022-12-11T18:45:01.856Z,2434.929
2022-12-11T18:50:07.293Z,2469.072
2022-12-11T18:55:01.851Z,2724.776
2022-12-11T19:00:01.850Z,2589.663
2022-12-11T19:05:01.838Z,2577.873
2022-12-11T19:10:01.999Z,3173.597
2022-12-11T19:15:01.885Z,1975.857
2022-12-11T19:20:09.113Z,2598.809
2022-12-11T19:25:01.989Z,2470.02
2022-12-11T19:30:02.050Z,2475.679
2022-12-11T19:35:01.949Z,2550.704
2022-12-11T19:40:01.905Z,2882.65
2022-12-11T19:45:01.882Z,961.226
2022-12-11T19:50:01.965Z,565.484
2022-12-11T19:55:01.929Z,405.58500000000004
2022-12-11T20:00:01.928Z,278.035
2022-12-11T20:05:01.917Z,1368.721
2022-12-11T20:10:02.046Z,2245.275
2022-12-11T20:15:02.149Z,2248.698
2022-12-11T20:20:02.207Z,2270.41
2022-12-11T20:25:01.907Z,2421.569
2022-12-11T20:30:01.985Z,1966.901
2022-12-11T20:35:01.943Z,2698.7200000000003
2022-12-11T20:40:01.966Z,2607.4
2022-12-11T20:45:01.993Z,2362.951
2022-12-11T20:50:01.952Z,2355.861
2022-12-11T20:55:02.117Z,2334.985
2022-12-11T21:00:02.100Z,2225.814
2022-12-11T21:05:01.922Z,276.425
2022-12-11T21:10:01.974Z,299.121
2022-12-11T21:15:01.974Z,413.859
2022-12-11T21:20:01.964Z,406.005
2022-12-11T21:25:01.973Z,404.119
2022-12-11T21:30:02.031Z,1295.191
2022-12-11T21:35:02.130Z,2303.973
2022-12-11T21:40:02.171Z,2299.745
2022-12-11T21:50:02.029Z,1939.5320000000002
2022-12-11T21:55:01.979Z,2441.1440000000002
2022-12-11T22:00:02.008Z,2466.442
2022-12-11T22:05:02.056Z,2470.23
2022-12-11T22:10:02.074Z,2481.698
2022-12-11T22:15:02.143Z,2379.664
2022-12-11T22:20:02.130Z,2507.757
2022-12-11T22:25:02.203Z,2428.385
2022-12-11T22:30:02.183Z,2447.206
2022-12-11T22:35:02.057Z,2728.434
2022-12-11T22:40:02.166Z,1065.829
2022-12-11T22:45:02.029Z,355.928
2022-12-11T22:50:01.998Z,355.146
2022-12-11T22:55:02.038Z,295.149
2022-12-11T23:00:02.132Z,303.995
2022-12-11T23:05:02.170Z,3884.3630000000003
2022-12-11T23:10:02.272Z,6316.295
2022-12-11T23:15:02.087Z,7154.335
2022-12-11T23:20:02.129Z,6745.948
2022-12-11T23:25:02.182Z,6776.066
2022-12-11T23:30:02.097Z,6831.532
2022-12-11T23:35:02.064Z,6390.309
2022-12-11T23:40:02.209Z,2380.053
2022-12-11T23:45:02.096Z,2368.304
2022-12-11T23:50:02.170Z,2265.909
2022-12-11T23:55:02.289Z,2271.364
